createdAt,value
2018-01-21T00:00:38.507Z,2.38
2018-01-21T00:01:43.119Z,2.44
2018-01-21T00:02:47.427Z,2.51
2018-01-21T00:03:51.840Z,2.69
2018-01-21T00:04:56.247Z,2.86
2018-01-21T00:06:00.586Z,2.98
2018-01-21T00:07:06.079Z,3.11
2018-01-21T00:08:10.675Z,3.32
2018-01-21T00:09:15.538Z,3.44
2018-01-21T00:10:22.006Z,3.48
2018-01-21T00:11:26.643Z,3.43
2018-01-21T00:12:30.896Z,3.35
2018-01-21T00:13:35.221Z,3.13
2018-01-21T00:14:39.935Z,3.00
2018-01-21T00:15:44.838Z,2.88
2018-01-21T00:16:49.153Z,2.77
2018-01-21T00:17:53.367Z,2.71
2018-01-21T00:18:57.671Z,2.66
2018-01-21T00:20:02.025Z,2.66
2018-01-21T00:21:06.741Z,2.85
2018-01-21T00:22:11.597Z,3.17
2018-01-21T00:23:16.860Z,3.28
2018-01-21T00:24:22.404Z,3.29
2018-01-21T00:25:26.663Z,3.39
2018-01-21T00:26:30.920Z,3.26
2018-01-21T00:27:35.256Z,3.04
2018-01-21T00:28:39.570Z,3.05
2018-01-21T00:29:43.907Z,3.14
2018-01-21T00:30:48.387Z,3.25
2018-01-21T00:31:52.600Z,3.28
2018-01-21T00:32:56.811Z,3.16
2018-01-21T00:34:01.086Z,3.07
2018-01-21T00:35:05.466Z,2.99
2018-01-21T00:36:09.746Z,2.98
2018-01-21T00:37:13.987Z,2.93
2018-01-21T00:38:19.123Z,2.86
2018-01-21T00:39:24.608Z,2.96
2018-01-21T00:40:28.884Z,2.90
2018-01-21T00:41:33.212Z,3.01
2018-01-21T00:42:37.571Z,2.92
2018-01-21T00:43:41.829Z,2.91
2018-01-21T00:44:46.557Z,2.81
2018-01-21T00:45:51.046Z,2.63
2018-01-21T00:46:55.355Z,2.51
2018-01-21T00:47:59.612Z,2.47
2018-01-21T00:49:03.914Z,2.27
2018-01-21T00:50:08.223Z,2.13
2018-01-21T00:51:12.789Z,2.00
2018-01-21T00:52:17.087Z,1.88
2018-01-21T00:53:21.289Z,1.77
2018-01-21T00:54:26.135Z,1.73
2018-01-21T00:55:30.528Z,1.75
2018-01-21T00:56:34.791Z,1.86
2018-01-21T00:57:38.994Z,1.97
2018-01-21T00:58:43.227Z,1.99
2018-01-21T00:59:47.506Z,2.30
2018-01-21T01:00:52.217Z,2.34
2018-01-21T01:01:56.795Z,2.35
2018-01-21T01:03:01.042Z,2.24
2018-01-21T01:04:05.674Z,2.09
2018-01-21T01:05:10.059Z,1.91
2018-01-21T01:06:14.398Z,1.76
2018-01-21T01:07:19.483Z,1.88
2018-01-21T01:08:24.088Z,2.01
2018-01-21T01:09:28.282Z,1.89
2018-01-21T01:10:32.848Z,1.71
2018-01-21T01:11:37.115Z,1.67
2018-01-21T01:12:42.380Z,1.54
2018-01-21T01:13:46.543Z,1.42
2018-01-21T01:14:50.781Z,1.33
2018-01-21T01:15:55.678Z,1.36
2018-01-21T01:17:01.345Z,1.40
2018-01-21T01:18:05.594Z,1.42
2018-01-21T01:19:09.892Z,1.41
2018-01-21T01:20:14.190Z,1.29
2018-01-21T01:21:18.553Z,1.24
2018-01-21T01:22:22.824Z,1.15
2018-01-21T01:23:28.358Z,1.10
2018-01-21T01:24:32.707Z,0.97
2018-01-21T01:25:36.971Z,0.88
2018-01-21T01:26:41.253Z,0.75
2018-01-21T01:27:45.427Z,0.69
2018-01-21T01:28:50.034Z,0.73
2018-01-21T01:29:54.283Z,0.73
2018-01-21T01:30:58.826Z,0.73
2018-01-21T01:32:03.276Z,0.65
2018-01-21T01:33:07.562Z,0.67
2018-01-21T01:34:11.781Z,0.66
2018-01-21T01:35:16.298Z,0.63
2018-01-21T01:36:21.443Z,0.62
2018-01-21T01:37:26.292Z,0.66
2018-01-21T01:38:30.467Z,0.74
2018-01-21T01:39:34.651Z,0.80
2018-01-21T01:40:38.811Z,0.72
2018-01-21T01:41:43.318Z,0.70
2018-01-21T01:42:47.576Z,0.73
2018-01-21T01:43:51.790Z,0.86
2018-01-21T01:44:56.023Z,0.88
2018-01-21T01:46:00.302Z,0.90
2018-01-21T01:47:04.603Z,0.91
2018-01-21T01:48:08.984Z,0.93
2018-01-21T01:49:13.172Z,0.88
2018-01-21T01:50:18.393Z,0.89
2018-01-21T01:51:22.622Z,1.01
2018-01-21T01:52:27.412Z,1.01
2018-01-21T01:53:31.664Z,1.06
2018-01-21T01:54:36.160Z,1.03
2018-01-21T01:55:40.353Z,1.01
2018-01-21T01:56:44.590Z,1.00
2018-01-21T01:57:48.883Z,1.06
2018-01-21T01:58:53.066Z,1.10
2018-01-21T01:59:57.411Z,1.16
2018-01-21T02:01:02.443Z,1.21
2018-01-21T02:02:06.626Z,1.16
2018-01-21T02:03:10.867Z,1.15
2018-01-21T02:04:15.093Z,1.14
2018-01-21T02:05:19.254Z,1.15
2018-01-21T02:06:23.373Z,1.11
2018-01-21T02:07:27.841Z,1.10
2018-01-21T02:08:32.139Z,1.11
2018-01-21T02:09:36.328Z,1.13
2018-01-21T02:10:40.504Z,1.20
2018-01-21T02:11:44.730Z,1.18
2018-01-21T02:12:49.038Z,1.18
2018-01-21T02:13:53.612Z,1.15
2018-01-21T02:14:57.812Z,1.16
2018-01-21T02:16:02.444Z,1.22
2018-01-21T02:17:06.833Z,1.19
2018-01-21T02:18:11.049Z,1.24
2018-01-21T02:19:15.676Z,1.21
2018-01-21T02:20:20.163Z,1.23
2018-01-21T02:21:24.446Z,1.27
2018-01-21T02:22:28.666Z,1.27
2018-01-21T02:23:32.922Z,1.24
2018-01-21T02:24:37.238Z,1.19
2018-01-21T02:25:41.870Z,1.16
2018-01-21T02:26:46.181Z,1.11
2018-01-21T02:27:50.429Z,1.13
2018-01-21T02:28:54.735Z,1.19
2018-01-21T02:29:59.052Z,1.15
2018-01-21T02:31:03.445Z,1.13
2018-01-21T02:32:08.032Z,1.07
2018-01-21T02:33:12.265Z,1.01
2018-01-21T02:34:20.865Z,0.97
2018-01-21T02:35:25.204Z,0.92
2018-01-21T02:36:29.588Z,0.94
2018-01-21T02:37:33.905Z,1.03
2018-01-21T02:38:38.125Z,1.10
2018-01-21T02:39:42.343Z,1.16
2018-01-21T02:40:46.618Z,1.18
2018-01-21T02:41:50.975Z,1.23
2018-01-21T02:42:55.191Z,1.29
2018-01-21T02:43:59.394Z,1.24
2018-01-21T02:45:05.993Z,1.32
2018-01-21T02:46:10.325Z,1.21
2018-01-21T02:47:14.518Z,1.20
2018-01-21T02:48:19.710Z,1.22
2018-01-21T02:49:23.907Z,1.34
2018-01-21T02:50:28.501Z,1.45
2018-01-21T02:51:33.224Z,1.53
2018-01-21T02:52:37.439Z,1.50
2018-01-21T02:53:41.669Z,1.58
2018-01-21T02:54:45.895Z,1.49
2018-01-21T02:55:50.700Z,1.43
2018-01-21T02:56:55.328Z,1.39
2018-01-21T02:57:59.902Z,1.38
2018-01-21T02:59:04.135Z,1.41
2018-01-21T03:00:08.435Z,1.45
2018-01-21T03:01:12.956Z,1.51
2018-01-21T03:02:17.161Z,1.56
2018-01-21T03:03:22.176Z,1.71
2018-01-21T03:04:26.640Z,2.01
2018-01-21T03:05:30.791Z,2.03
2018-01-21T03:06:35.029Z,1.99
2018-01-21T03:07:39.256Z,1.96
2018-01-21T03:08:43.428Z,1.91
2018-01-21T03:09:47.606Z,1.76
2018-01-21T03:10:52.194Z,1.72
2018-01-21T03:11:56.564Z,1.73
2018-01-21T03:13:00.730Z,1.70
2018-01-21T03:14:04.979Z,1.74
2018-01-21T03:15:09.655Z,1.82
2018-01-21T03:16:13.907Z,1.85
2018-01-21T03:17:18.493Z,1.85
2018-01-21T03:18:23.612Z,1.93
2018-01-21T03:19:27.854Z,2.05
2018-01-21T03:20:32.002Z,2.35
2018-01-21T03:21:36.222Z,2.60
2018-01-21T03:22:40.471Z,2.70
2018-01-21T03:23:44.707Z,2.71
2018-01-21T03:24:49.006Z,2.57
2018-01-21T03:25:53.185Z,2.59
2018-01-21T03:26:57.345Z,2.62
2018-01-21T03:28:01.688Z,2.45
2018-01-21T03:29:05.954Z,2.20
2018-01-21T03:30:12.754Z,2.10
2018-01-21T03:31:17.624Z,1.94
2018-01-21T03:32:23.011Z,1.72
2018-01-21T03:33:27.302Z,1.53
2018-01-21T03:34:31.518Z,1.46
2018-01-21T03:35:35.838Z,1.34
2018-01-21T03:36:40.282Z,1.24
2018-01-21T03:37:44.430Z,1.13
2018-01-21T03:38:48.750Z,1.09
2018-01-21T03:39:53.110Z,1.09
2018-01-21T03:40:57.363Z,1.14
2018-01-21T03:42:01.638Z,1.26
2018-01-21T03:43:06.225Z,1.37
2018-01-21T03:44:10.418Z,1.47
2018-01-21T03:45:17.037Z,1.51
2018-01-21T03:46:21.220Z,1.54
2018-01-21T03:47:25.441Z,1.61
2018-01-21T03:48:29.732Z,1.64
2018-01-21T03:49:33.986Z,1.65
2018-01-21T03:50:38.122Z,1.65
2018-01-21T03:51:42.330Z,1.72
2018-01-21T03:52:46.521Z,1.83
2018-01-21T03:53:50.822Z,1.82
2018-01-21T03:54:54.994Z,1.80
2018-01-21T03:55:59.433Z,1.96
2018-01-21T03:57:03.568Z,1.96
2018-01-21T03:58:07.780Z,2.05
2018-01-21T03:59:12.058Z,2.28
2018-01-21T04:00:17.240Z,2.38
2018-01-21T04:01:21.875Z,2.63
2018-01-21T04:02:27.404Z,2.64
2018-01-21T04:03:31.638Z,2.46
2018-01-21T04:04:35.922Z,2.33
2018-01-21T04:05:40.117Z,2.19
2018-01-21T04:06:44.350Z,1.99
2018-01-21T04:07:48.593Z,1.94
2018-01-21T04:08:53.214Z,1.83
2018-01-21T04:09:57.342Z,1.73
2018-01-21T04:11:01.497Z,1.63
2018-01-21T04:12:05.646Z,1.51
2018-01-21T04:13:09.999Z,1.33
2018-01-21T04:14:14.506Z,1.24
2018-01-21T04:15:19.612Z,1.10
2018-01-21T04:16:23.773Z,0.99
2018-01-21T04:17:28.047Z,0.94
2018-01-21T04:18:32.240Z,0.93
2018-01-21T04:19:36.501Z,0.93
2018-01-21T04:22:07.319Z,1.16
2018-01-21T04:23:11.513Z,1.31
2018-01-21T04:24:15.749Z,1.55
2018-01-21T04:25:21.867Z,1.66
2018-01-21T04:26:27.813Z,1.93
2018-01-21T04:27:32.487Z,2.25
2018-01-21T04:28:37.368Z,2.48
2018-01-21T04:29:41.517Z,2.51
2018-01-21T04:30:46.245Z,2.62
2018-01-21T04:31:50.723Z,2.57
2018-01-21T04:32:55.849Z,2.63
2018-01-21T04:34:01.097Z,2.80
2018-01-21T04:35:05.308Z,2.92
2018-01-21T04:36:09.545Z,3.04
2018-01-21T04:37:13.709Z,3.07
2018-01-21T04:38:18.152Z,2.95
2018-01-21T04:39:22.943Z,2.80
2018-01-21T04:40:27.473Z,2.66
2018-01-21T04:41:31.889Z,2.67
2018-01-21T04:42:37.090Z,2.57
2018-01-21T04:43:41.286Z,2.46
2018-01-21T04:44:45.490Z,2.51
2018-01-21T04:45:50.652Z,2.61
2018-01-21T04:46:55.209Z,2.39
2018-01-21T04:47:59.320Z,2.48
2018-01-21T04:49:03.607Z,2.54
2018-01-21T04:50:09.076Z,2.43
2018-01-21T04:51:13.837Z,2.35
2018-01-21T04:52:18.984Z,2.26
2018-01-21T04:53:23.392Z,2.17
2018-01-21T04:54:28.369Z,2.07
2018-01-21T04:55:32.584Z,2.06
2018-01-21T04:56:38.435Z,2.03
2018-01-21T04:57:43.668Z,2.04
2018-01-21T04:58:47.771Z,1.98
2018-01-21T04:59:52.001Z,1.93
2018-01-21T05:00:57.996Z,1.97
2018-01-21T05:02:03.115Z,1.93
2018-01-21T05:03:07.949Z,2.03
2018-01-21T05:04:13.867Z,1.98
2018-01-21T05:05:19.680Z,1.90
2018-01-21T05:06:25.917Z,1.86
2018-01-21T05:07:30.103Z,1.94
2018-01-21T05:08:35.106Z,1.92
2018-01-21T05:09:41.835Z,1.90
2018-01-21T05:10:47.001Z,1.97
2018-01-21T05:11:52.073Z,2.02
2018-01-21T05:12:58.546Z,2.10
2018-01-21T05:14:02.807Z,2.08
2018-01-21T05:15:07.375Z,1.99
2018-01-21T05:16:12.502Z,1.93
2018-01-21T05:17:17.125Z,1.99
2018-01-21T05:18:21.786Z,2.29
2018-01-21T05:19:38.118Z,2.44
2018-01-21T05:20:43.145Z,2.46
2018-01-21T05:21:48.861Z,2.48
2018-01-21T05:22:52.959Z,2.88
2018-01-21T05:23:57.888Z,2.84
2018-01-21T05:25:03.335Z,2.83
2018-01-21T05:26:07.829Z,2.83
2018-01-21T05:27:12.030Z,3.06
2018-01-21T05:28:17.790Z,2.94
2018-01-21T05:29:26.640Z,2.78
2018-01-21T05:30:31.880Z,2.69
2018-01-21T05:31:37.431Z,2.66
2018-01-21T05:32:43.148Z,2.77
2018-01-21T05:33:48.208Z,2.93
2018-01-21T05:34:54.361Z,3.01
2018-01-21T05:35:59.338Z,3.00
2018-01-21T05:37:03.522Z,3.07
2018-01-21T05:38:08.624Z,3.17
2018-01-21T05:39:13.586Z,3.19
2018-01-21T05:40:17.792Z,3.38
2018-01-21T05:41:22.534Z,3.48
2018-01-21T05:42:28.914Z,3.51
2018-01-21T05:43:33.025Z,3.56
2018-01-21T05:44:38.052Z,3.60
2018-01-21T05:45:43.764Z,3.55
2018-01-21T05:46:48.762Z,3.41
2018-01-21T05:47:53.345Z,3.19
2018-01-21T05:48:59.167Z,3.05
2018-01-21T05:50:04.544Z,2.95
2018-01-21T05:51:09.731Z,2.90
2018-01-21T05:52:14.280Z,2.84
2018-01-21T05:53:19.705Z,2.79
2018-01-21T05:54:24.014Z,3.06
2018-01-21T05:55:28.613Z,3.20
2018-01-21T05:56:33.788Z,3.24
2018-01-21T05:57:39.765Z,3.25
2018-01-21T05:58:44.933Z,3.28
2018-01-21T05:59:50.691Z,3.30
2018-01-21T06:00:57.970Z,3.26
2018-01-21T06:02:02.684Z,3.38
2018-01-21T06:03:07.209Z,3.53
2018-01-21T06:04:12.035Z,3.50
2018-01-21T06:05:17.485Z,3.38
2018-01-21T06:06:24.862Z,3.28
2018-01-21T06:07:29.964Z,3.15
2018-01-21T06:08:34.168Z,3.09
2018-01-21T06:09:38.621Z,3.17
2018-01-21T06:10:42.864Z,3.28
2018-01-21T06:11:46.956Z,3.49
2018-01-21T06:12:51.965Z,3.57
2018-01-21T06:13:56.895Z,3.58
2018-01-21T06:15:04.707Z,3.57
2018-01-21T06:16:08.985Z,3.59
2018-01-21T06:17:14.293Z,3.63
2018-01-21T06:18:18.778Z,3.67
2018-01-21T06:20:40.796Z,3.72
2018-01-21T06:21:46.022Z,3.71
2018-01-21T06:22:51.021Z,3.67
2018-01-21T06:23:55.831Z,3.62
2018-01-21T06:25:01.517Z,3.38
2018-01-21T06:26:06.356Z,3.29
2018-01-21T06:27:11.602Z,3.39
2018-01-21T06:28:16.380Z,3.54
2018-01-21T06:29:22.530Z,3.57
2018-01-21T06:30:28.263Z,3.60
2018-01-21T06:31:32.473Z,3.53
2018-01-21T06:32:36.709Z,3.47
2018-01-21T06:33:41.188Z,3.43
2018-01-21T06:34:45.357Z,3.41
2018-01-21T06:35:50.343Z,3.40
2018-01-21T06:36:54.551Z,3.36
2018-01-21T06:37:59.738Z,3.31
2018-01-21T06:39:07.491Z,3.36
2018-01-21T06:40:12.614Z,3.46
2018-01-21T06:41:19.151Z,3.44
2018-01-21T06:42:25.095Z,3.35
2018-01-21T06:43:31.287Z,3.39
2018-01-21T06:44:37.995Z,3.25
2018-01-21T06:45:43.200Z,3.14
2018-01-21T06:46:48.163Z,2.97
2018-01-21T06:47:52.340Z,2.79
2018-01-21T06:48:57.254Z,2.63
2018-01-21T06:50:03.261Z,2.49
2018-01-21T06:51:08.755Z,2.37
2018-01-21T06:52:13.503Z,2.33
2018-01-21T06:53:17.850Z,2.28
2018-01-21T06:54:23.422Z,2.23
2018-01-21T06:55:28.459Z,2.22
2018-01-21T06:56:33.895Z,2.17
2018-01-21T06:57:40.443Z,2.12
2018-01-21T06:58:47.699Z,2.12
2018-01-21T06:59:52.485Z,2.08
2018-01-21T07:00:57.741Z,2.01
2018-01-21T07:02:03.066Z,1.98
2018-01-21T07:03:07.920Z,1.96
2018-01-21T07:04:13.522Z,2.12
2018-01-21T07:05:18.674Z,2.43
2018-01-21T07:06:24.051Z,2.71
2018-01-21T07:07:29.902Z,2.78
2018-01-21T07:08:36.061Z,2.70
2018-01-21T07:09:40.835Z,2.55
2018-01-21T07:10:45.121Z,2.58
2018-01-21T07:11:50.359Z,2.54
2018-01-21T07:12:55.482Z,2.41
2018-01-21T07:14:00.194Z,2.29
2018-01-21T07:15:07.941Z,2.32
2018-01-21T07:16:13.118Z,2.37
2018-01-21T07:17:18.810Z,2.48
2018-01-21T07:18:23.047Z,2.55
2018-01-21T07:19:29.710Z,2.66
2018-01-21T07:20:36.555Z,2.80
2018-01-21T07:21:42.263Z,2.97
2018-01-21T07:22:46.364Z,3.16
2018-01-21T07:23:51.739Z,3.29
2018-01-21T07:24:57.360Z,3.27
2018-01-21T07:26:01.538Z,3.05
2018-01-21T07:27:06.394Z,2.77
2018-01-21T07:28:10.591Z,2.76
2018-01-21T07:29:14.856Z,2.65
2018-01-21T07:30:21.083Z,2.56
2018-01-21T07:31:25.489Z,2.66
2018-01-21T07:32:31.215Z,2.99
2018-01-21T07:33:36.264Z,2.94
2018-01-21T07:34:41.720Z,2.86
2018-01-21T07:35:46.320Z,2.74
2018-01-21T07:36:51.371Z,2.67
2018-01-21T07:37:56.800Z,2.71
2018-01-21T07:39:01.663Z,2.74
2018-01-21T07:40:06.414Z,2.92
2018-01-21T07:41:11.413Z,2.93
2018-01-21T07:42:15.914Z,2.86
2018-01-21T07:43:22.881Z,2.75
2018-01-21T07:44:28.390Z,2.66
2018-01-21T07:45:33.552Z,2.57
2018-01-21T07:46:37.827Z,2.54
2018-01-21T07:47:43.838Z,2.52
2018-01-21T07:48:49.233Z,2.72
2018-01-21T07:49:54.192Z,2.78
2018-01-21T07:51:00.034Z,3.18
2018-01-21T07:52:04.890Z,3.40
2018-01-21T07:53:09.750Z,3.41
2018-01-21T07:54:14.166Z,3.11
2018-01-21T07:55:18.995Z,2.86
2018-01-21T07:56:23.820Z,2.64
2018-01-21T07:58:56.990Z,2.87
2018-01-21T08:00:02.166Z,3.06
2018-01-21T08:01:07.842Z,3.10
2018-01-21T08:02:12.053Z,3.25
2018-01-21T08:03:16.251Z,3.27
2018-01-21T08:04:21.302Z,3.28
2018-01-21T08:05:26.813Z,3.15
2018-01-21T08:06:31.037Z,3.05
2018-01-21T08:07:35.297Z,2.75
2018-01-21T08:08:39.546Z,2.51
2018-01-21T08:09:43.846Z,2.33
2018-01-21T08:10:49.372Z,2.21
2018-01-21T08:11:53.589Z,2.13
2018-01-21T08:12:59.187Z,2.11
2018-01-21T08:14:03.402Z,2.06
2018-01-21T08:15:08.352Z,2.03
2018-01-21T08:16:14.945Z,2.00
2018-01-21T08:17:19.194Z,1.96
2018-01-21T08:18:24.195Z,1.93
2018-01-21T08:19:29.181Z,1.89
2018-01-21T08:20:35.012Z,1.81
2018-01-21T08:21:41.367Z,1.84
2018-01-21T08:22:45.800Z,1.97
2018-01-21T08:23:50.850Z,2.02
2018-01-21T08:24:54.974Z,2.32
2018-01-21T08:26:00.261Z,2.36
2018-01-21T08:27:05.334Z,2.41
2018-01-21T08:28:10.197Z,2.50
2018-01-21T08:29:14.412Z,2.40
2018-01-21T08:30:20.014Z,2.28
2018-01-21T08:31:32.419Z,2.25
2018-01-21T08:33:51.793Z,2.75
2018-01-21T08:37:01.910Z,2.88
2018-01-21T08:40:13.552Z,2.51
2018-01-21T08:41:36.656Z,2.26
2018-01-21T08:42:41.350Z,2.25
2018-01-21T08:43:46.224Z,2.28
2018-01-21T08:44:50.549Z,2.26
2018-01-21T08:45:56.388Z,2.17
2018-01-21T08:47:00.615Z,2.11
2018-01-21T08:48:06.576Z,2.13
2018-01-21T08:49:11.738Z,2.16
2018-01-21T08:50:16.738Z,2.26
2018-01-21T08:51:22.477Z,2.25
2018-01-21T08:52:27.331Z,2.27
2018-01-21T08:53:32.123Z,2.27
2018-01-21T08:54:37.662Z,2.28
2018-01-21T08:55:43.340Z,2.35
2018-01-21T08:56:48.210Z,2.40
2018-01-21T08:57:52.825Z,2.42
2018-01-21T08:58:57.782Z,2.43
2018-01-21T09:00:04.426Z,2.29
2018-01-21T09:01:10.686Z,2.20
2018-01-21T09:02:16.329Z,2.13
2018-01-21T09:03:21.191Z,2.05
2018-01-21T09:04:27.224Z,2.00
2018-01-21T09:05:31.577Z,2.00
2018-01-21T09:06:35.766Z,2.03
2018-01-21T09:07:41.464Z,2.06
2018-01-21T09:08:46.369Z,2.18
2018-01-21T09:09:50.521Z,2.33
2018-01-21T09:10:54.828Z,2.62
2018-01-21T09:12:00.552Z,2.63
2018-01-21T09:13:06.481Z,2.91
2018-01-21T09:14:12.125Z,3.30
2018-01-21T09:15:17.351Z,3.15
2018-01-21T09:16:23.264Z,3.66
2018-01-21T09:17:29.156Z,3.82
2018-01-21T09:18:34.955Z,4.09
2018-01-21T09:19:40.453Z,4.31
2018-01-21T09:20:46.988Z,4.09
2018-01-21T09:21:51.595Z,3.82
2018-01-21T09:22:56.015Z,3.37
2018-01-21T09:24:00.329Z,3.47
2018-01-21T09:25:05.352Z,3.31
2018-01-21T09:26:09.770Z,3.72
2018-01-21T09:27:14.005Z,3.94
2018-01-21T09:28:19.054Z,3.84
2018-01-21T09:29:24.898Z,3.65
2018-01-21T09:30:31.041Z,3.30
2018-01-21T09:31:35.277Z,3.07
2018-01-21T09:32:41.913Z,3.07
2018-01-21T09:33:46.462Z,3.22
2018-01-21T09:34:50.810Z,3.42
2018-01-21T09:35:56.968Z,3.42
2018-01-21T09:37:01.982Z,3.35
2018-01-21T09:38:07.390Z,3.43
2018-01-21T09:39:13.935Z,3.32
2018-01-21T09:40:20.864Z,3.21
2018-01-21T09:41:26.622Z,3.52
2018-01-21T09:42:31.765Z,3.49
2018-01-21T09:43:36.614Z,3.33
2018-01-21T09:44:41.209Z,3.27
2018-01-21T09:45:46.065Z,3.31
2018-01-21T09:46:51.158Z,3.45
2018-01-21T09:47:56.334Z,3.36
2018-01-21T09:49:02.010Z,3.28
2018-01-21T09:50:07.198Z,3.41
2018-01-21T09:51:13.844Z,3.35
2018-01-21T09:52:18.466Z,3.09
2018-01-21T09:53:24.163Z,2.91
2018-01-21T09:54:28.406Z,2.99
2018-01-21T09:55:33.527Z,3.09
2018-01-21T09:56:38.770Z,3.02
2018-01-21T09:57:43.249Z,2.99
2018-01-21T09:58:49.735Z,3.01
2018-01-21T09:59:55.156Z,3.07
2018-01-21T10:00:59.470Z,2.96
2018-01-21T10:02:03.672Z,3.03
2018-01-21T10:03:08.860Z,3.00
2018-01-21T10:04:13.908Z,2.93
2018-01-21T10:05:21.344Z,2.96
2018-01-21T10:06:26.207Z,2.91
2018-01-21T10:07:31.103Z,2.93
2018-01-21T10:08:35.982Z,2.97
2018-01-21T10:09:41.150Z,2.94
2018-01-21T10:10:45.486Z,2.81
2018-01-21T10:11:51.166Z,2.78
2018-01-21T10:12:56.390Z,2.83
2018-01-21T10:14:00.647Z,2.83
2018-01-21T10:15:07.620Z,2.92
2018-01-21T10:16:12.286Z,3.03
2018-01-21T10:17:17.766Z,3.05
2018-01-21T10:18:23.250Z,3.09
2018-01-21T10:19:27.585Z,3.09
2018-01-21T10:20:32.921Z,3.25
2018-01-21T10:21:37.782Z,3.23
2018-01-21T10:22:42.742Z,3.13
2018-01-21T10:23:48.426Z,3.06
2018-01-21T10:24:55.022Z,3.10
2018-01-21T10:26:01.167Z,3.09
2018-01-21T10:27:05.737Z,3.20
2018-01-21T10:28:10.752Z,3.20
2018-01-21T10:29:15.707Z,3.05
2018-01-21T10:30:21.879Z,2.96
2018-01-21T10:31:27.434Z,3.04
2018-01-21T10:32:32.020Z,2.90
2018-01-21T10:33:37.288Z,2.67
2018-01-21T10:34:41.578Z,2.84
2018-01-21T10:35:46.696Z,3.03
2018-01-21T10:36:51.629Z,3.04
2018-01-21T10:37:57.139Z,2.98
2018-01-21T10:39:01.688Z,3.02
2018-01-21T10:40:06.420Z,2.92
2018-01-21T10:41:12.121Z,2.71
2018-01-21T10:42:17.587Z,2.68
2018-01-21T10:43:29.952Z,2.78
2018-01-21T10:44:34.336Z,2.80
2018-01-21T10:45:39.098Z,2.93
2018-01-21T10:46:44.753Z,2.96
2018-01-21T10:47:49.180Z,3.09
2018-01-21T10:48:55.071Z,3.20
2018-01-21T10:49:59.818Z,3.40
2018-01-21T10:51:05.979Z,3.28
2018-01-21T10:52:11.097Z,3.25
2018-01-21T10:53:15.781Z,3.26
2018-01-21T10:54:21.135Z,3.22
2018-01-21T10:55:26.196Z,3.41
2018-01-21T10:56:30.857Z,3.37
2018-01-21T10:57:35.402Z,3.59
2018-01-21T10:58:41.427Z,3.83
2018-01-21T10:59:46.073Z,3.96
2018-01-21T11:00:56.211Z,3.77
2018-01-21T11:02:01.264Z,3.74
2018-01-21T11:03:05.526Z,3.88
2018-01-21T11:04:11.306Z,4.02
2018-01-21T11:05:15.993Z,3.84
2018-01-21T11:06:20.657Z,3.39
2018-01-21T11:07:27.883Z,3.07
2018-01-21T11:08:36.545Z,2.89
2018-01-21T11:09:42.912Z,3.15
2018-01-21T11:10:49.950Z,3.29
2018-01-21T11:11:54.618Z,3.03
2018-01-21T11:13:04.895Z,3.11
2018-01-21T11:14:14.624Z,2.99
2018-01-21T11:15:21.185Z,3.05
2018-01-21T11:16:27.343Z,3.07
2018-01-21T11:17:32.337Z,2.92
2018-01-21T11:18:38.131Z,2.78
2018-01-21T11:19:43.022Z,2.74
2018-01-21T11:20:49.249Z,2.86
2018-01-21T11:21:54.148Z,3.06
2018-01-21T11:22:58.480Z,2.93
2018-01-21T11:24:04.000Z,2.72
2018-01-21T11:25:10.264Z,2.53
2018-01-21T11:26:16.624Z,2.42
2018-01-21T11:27:22.374Z,2.65
2018-01-21T11:28:26.834Z,2.83
2018-01-21T11:29:36.525Z,2.85
2018-01-21T11:30:42.129Z,2.70
2018-01-21T11:31:49.041Z,2.67
2018-01-21T11:32:55.645Z,2.84
2018-01-21T11:34:01.337Z,3.02
2018-01-21T11:35:08.383Z,2.88
2018-01-21T11:36:14.924Z,2.68
2018-01-21T11:37:22.229Z,2.51
2018-01-21T11:38:29.893Z,2.36
2018-01-21T11:39:35.594Z,2.30
2018-01-21T11:40:42.222Z,2.28
2018-01-21T11:41:48.609Z,2.40
2018-01-21T11:42:54.331Z,2.67
2018-01-21T11:44:02.027Z,2.60
2018-01-21T11:45:07.179Z,2.62
2018-01-21T11:46:12.585Z,2.41
2018-01-21T11:47:19.643Z,2.51
2018-01-21T11:48:27.856Z,2.44
2018-01-21T11:49:34.444Z,2.53
2018-01-21T11:50:41.806Z,2.75
2018-01-21T11:51:46.420Z,2.83
2018-01-21T11:52:52.947Z,2.91
2018-01-21T11:54:00.011Z,2.70
2018-01-21T11:55:06.767Z,2.53
2018-01-21T11:56:14.363Z,2.64
2018-01-21T11:57:22.815Z,2.79
2018-01-21T11:58:32.094Z,2.76
2018-01-21T11:59:39.288Z,2.76
2018-01-21T12:00:46.156Z,2.86
2018-01-21T12:01:55.425Z,2.94
2018-01-21T12:03:04.078Z,2.98
2018-01-21T12:04:09.353Z,3.19
2018-01-21T12:05:14.551Z,3.22
2018-01-21T12:06:21.576Z,3.37
2018-01-21T12:07:26.495Z,3.52
2018-01-21T12:08:35.154Z,3.26
2018-01-21T12:09:43.239Z,3.37
2018-01-21T12:10:50.710Z,3.39
2018-01-21T12:11:58.615Z,3.44
2018-01-21T12:13:07.391Z,3.29
2018-01-21T12:14:14.578Z,3.01
2018-01-21T12:15:21.401Z,2.78
2018-01-21T12:16:29.168Z,2.65
2018-01-21T12:17:36.573Z,2.61
2018-01-21T12:18:44.993Z,2.61
2018-01-21T12:19:52.352Z,2.77
2018-01-21T12:20:58.789Z,2.84
2018-01-21T12:22:06.472Z,2.80
2018-01-21T12:23:14.400Z,2.74
2018-01-21T12:24:22.871Z,2.83
2018-01-21T12:25:29.004Z,2.80
2018-01-21T12:26:34.938Z,3.09
2018-01-21T12:27:40.405Z,2.93
2018-01-21T12:28:46.656Z,2.88
2018-01-21T12:29:52.921Z,3.16
2018-01-21T12:30:58.648Z,3.24
2018-01-21T12:32:03.790Z,3.50
2018-01-21T12:33:09.751Z,3.66
2018-01-21T12:34:15.451Z,3.69
2018-01-21T12:35:23.738Z,3.73
2018-01-21T12:36:32.255Z,3.83
2018-01-21T12:37:37.382Z,3.76
2018-01-21T12:38:45.145Z,3.68
2018-01-21T12:39:53.109Z,3.64
2018-01-21T12:40:58.547Z,3.62
2018-01-21T12:42:03.352Z,3.21
2018-01-21T12:43:08.338Z,2.95
2018-01-21T12:44:14.417Z,2.79
2018-01-21T12:45:26.195Z,2.92
2018-01-21T12:46:33.707Z,3.22
2018-01-21T12:47:41.529Z,3.33
2018-01-21T12:48:48.946Z,3.34
2018-01-21T12:49:56.792Z,3.39
2018-01-21T12:51:03.904Z,3.27
2018-01-21T12:52:09.778Z,3.17
2018-01-21T12:53:16.298Z,3.05
2018-01-21T12:54:23.656Z,3.06
2018-01-21T12:55:30.977Z,3.31
2018-01-21T12:56:40.276Z,3.47
2018-01-21T12:57:44.877Z,3.38
2018-01-21T12:58:52.384Z,3.41
2018-01-21T13:00:01.003Z,3.35
2018-01-21T13:01:12.458Z,3.41
2018-01-21T13:02:19.327Z,3.37
2018-01-21T13:03:25.784Z,3.55
2018-01-21T13:04:41.516Z,3.68
2018-01-21T13:05:47.597Z,3.73
2018-01-21T13:06:55.375Z,3.97
2018-01-21T13:08:02.457Z,4.13
2018-01-21T13:09:07.835Z,4.20
2018-01-21T13:10:17.961Z,4.22
2018-01-21T13:11:27.385Z,4.10
2018-01-21T13:12:33.378Z,3.98
2018-01-21T13:13:38.819Z,4.12
2018-01-21T13:14:44.901Z,4.08
2018-01-21T13:15:51.829Z,3.93
2018-01-21T13:16:58.099Z,4.02
2018-01-21T13:18:03.525Z,4.04
2018-01-21T13:19:09.276Z,4.06
2018-01-21T13:20:16.233Z,3.96
2018-01-21T13:21:23.520Z,3.78
2018-01-21T13:22:32.950Z,3.79
2018-01-21T13:23:40.195Z,3.72
2018-01-21T13:24:46.685Z,3.68
2018-01-21T13:25:53.949Z,3.68
2018-01-21T13:27:00.892Z,3.94
2018-01-21T13:28:08.201Z,3.97
2018-01-21T13:29:16.336Z,4.03
2018-01-21T13:30:27.915Z,4.07
2018-01-21T13:31:35.100Z,3.99
2018-01-21T13:32:42.468Z,4.15
2018-01-21T13:33:53.692Z,3.93
2018-01-21T13:35:01.716Z,3.50
2018-01-21T13:36:08.267Z,3.44
2018-01-21T13:37:14.678Z,3.38
2018-01-21T13:38:23.183Z,3.32
2018-01-21T13:39:32.742Z,3.26
2018-01-21T13:40:41.153Z,3.23
2018-01-21T13:41:47.676Z,3.13
2018-01-21T13:42:56.993Z,3.12
2018-01-21T13:44:03.354Z,3.19
2018-01-21T13:45:16.504Z,3.14
2018-01-21T13:46:26.331Z,3.05
2018-01-21T13:47:33.137Z,3.03
2018-01-21T13:48:42.880Z,3.07
2018-01-21T13:49:50.663Z,2.93
2018-01-21T13:50:57.527Z,2.72
2018-01-21T13:52:04.459Z,2.62
2018-01-21T13:53:10.339Z,2.61
2018-01-21T13:54:16.891Z,2.67
2018-01-21T13:55:25.841Z,2.85
2018-01-21T13:56:30.882Z,3.01
2018-01-21T13:57:36.476Z,3.15
2018-01-21T13:58:42.776Z,3.20
2018-01-21T13:59:49.338Z,3.00
2018-01-21T14:00:56.011Z,3.09
2018-01-21T14:02:06.076Z,3.09
2018-01-21T14:03:12.883Z,3.07
2018-01-21T14:05:35.688Z,2.86
2018-01-21T14:06:47.260Z,2.95
2018-01-21T14:07:55.813Z,2.89
2018-01-21T14:09:02.855Z,2.90
2018-01-21T14:10:09.124Z,2.82
2018-01-21T14:11:15.305Z,2.87
2018-01-21T14:12:24.800Z,2.98
2018-01-21T14:13:31.884Z,3.00
2018-01-21T14:14:38.060Z,2.84
2018-01-21T14:15:45.300Z,2.79
2018-01-21T14:16:52.801Z,2.89
2018-01-21T14:18:01.754Z,3.00
2018-01-21T14:19:07.545Z,3.03
2018-01-21T14:20:13.242Z,2.97
2018-01-21T14:21:26.536Z,2.72
2018-01-21T14:22:34.221Z,2.69
2018-01-21T14:24:00.899Z,2.83
2018-01-21T14:25:06.984Z,2.72
2018-01-21T14:26:12.352Z,2.57
2018-01-21T14:27:17.525Z,2.53
2018-01-21T14:28:22.940Z,2.66
2018-01-21T14:29:29.937Z,2.85
2018-01-21T14:30:36.278Z,2.79
2018-01-21T14:31:42.422Z,2.95
2018-01-21T14:32:47.466Z,2.80
2018-01-21T14:33:52.902Z,2.72
2018-01-21T14:35:00.045Z,2.89
2018-01-21T14:36:07.505Z,3.05
2018-01-21T14:37:15.126Z,3.00
2018-01-21T14:38:26.275Z,2.91
2018-01-21T14:39:33.229Z,3.02
2018-01-21T14:40:40.956Z,3.15
2018-01-21T14:41:46.460Z,3.20
2018-01-21T14:42:54.900Z,3.36